sensor_id;sensor_type;location;lat;lon;timestamp;P1;durP1;ratioP1;P2;durP2;ratioP2
5077;SDS011;2557;51.390;7.494;2023-08-21T00:00:04;14.63;;;8.07;;
5077;SDS011;2557;51.390;7.494;2023-08-21T00:02:30;13.50;;;6.80;;
5077;SDS011;2557;51.390;7.494;2023-08-21T00:04:56;12.37;;;7.37;;
5077;SDS011;2557;51.390;7.494;2023-08-21T00:07:22;10.93;;;7.77;;
5077;SDS011;2557;51.390;7.494;2023-08-21T00:09:48;23.80;;;7.60;;
5077;SDS011;2557;51.390;7.494;2023-08-21T00:12:15;10.60;;;7.40;;
5077;SDS011;2557;51.390;7.494;2023-08-21T00:14:41;10.77;;;6.87;;
5077;SDS011;2557;51.390;7.494;2023-08-21T00:17:07;9.50;;;6.53;;
5077;SDS011;2557;51.390;7.494;2023-08-21T00:19:33;9.70;;;7.47;;
5077;SDS011;2557;51.390;7.494;2023-08-21T00:21:59;10.80;;;8.00;;
5077;SDS011;2557;51.390;7.494;2023-08-21T00:24:26;15.50;;;9.20;;
5077;SDS011;2557;51.390;7.494;2023-08-21T00:26:52;12.67;;;7.50;;
5077;SDS011;2557;51.390;7.494;2023-08-21T00:29:18;18.83;;;7.77;;
5077;SDS011;2557;51.390;7.494;2023-08-21T00:31:44;15.57;;;8.53;;
5077;SDS011;2557;51.390;7.494;2023-08-21T00:34:10;7.83;;;7.23;;
5077;SDS011;2557;51.390;7.494;2023-08-21T00:36:36;13.43;;;7.13;;
5077;SDS011;2557;51.390;7.494;2023-08-21T00:39:02;10.10;;;8.37;;
5077;SDS011;2557;51.390;7.494;2023-08-21T00:41:28;10.00;;;6.80;;
5077;SDS011;2557;51.390;7.494;2023-08-21T00:43:54;15.00;;;7.43;;
5077;SDS011;2557;51.390;7.494;2023-08-21T00:46:20;11.60;;;8.90;;
5077;SDS011;2557;51.390;7.494;2023-08-21T00:48:46;9.57;;;8.17;;
5077;SDS011;2557;51.390;7.494;2023-08-21T00:51:13;14.37;;;8.20;;
5077;SDS011;2557;51.390;7.494;2023-08-21T00:53:40;16.13;;;8.23;;
5077;SDS011;2557;51.390;7.494;2023-08-21T00:56:07;13.50;;;8.57;;
5077;SDS011;2557;51.390;7.494;2023-08-21T00:58:33;12.70;;;8.07;;
5077;SDS011;2557;51.390;7.494;2023-08-21T01:00:59;14.87;;;7.90;;
5077;SDS011;2557;51.390;7.494;2023-08-21T01:03:25;8.43;;;7.10;;
5077;SDS011;2557;51.390;7.494;2023-08-21T01:05:51;12.40;;;8.30;;
5077;SDS011;2557;51.390;7.494;2023-08-21T01:08:26;17.00;;;7.77;;
5077;SDS011;2557;51.390;7.494;2023-08-21T01:13:44;9.37;;;8.27;;
5077;SDS011;2557;51.390;7.494;2023-08-21T01:16:14;16.00;;;7.90;;
5077;SDS011;2557;51.390;7.494;2023-08-21T01:18:40;10.17;;;7.63;;
5077;SDS011;2557;51.390;7.494;2023-08-21T01:21:06;11.47;;;7.27;;
5077;SDS011;2557;51.390;7.494;2023-08-21T01:23:36;11.47;;;7.93;;
5077;SDS011;2557;51.390;7.494;2023-08-21T01:26:02;13.83;;;7.20;;
5077;SDS011;2557;51.390;7.494;2023-08-21T01:28:28;11.17;;;7.73;;
5077;SDS011;2557;51.390;7.494;2023-08-21T01:30:58;11.93;;;7.87;;
5077;SDS011;2557;51.390;7.494;2023-08-21T01:33:25;12.93;;;6.90;;
5077;SDS011;2557;51.390;7.494;2023-08-21T01:35:52;9.03;;;7.87;;
5077;SDS011;2557;51.390;7.494;2023-08-21T01:38:18;8.43;;;6.70;;
5077;SDS011;2557;51.390;7.494;2023-08-21T01:40:46;9.63;;;6.93;;
5077;SDS011;2557;51.390;7.494;2023-08-21T01:43:12;9.40;;;7.57;;
5077;SDS011;2557;51.390;7.494;2023-08-21T01:45:38;7.73;;;6.90;;
5077;SDS011;2557;51.390;7.494;2023-08-21T01:48:04;11.70;;;7.83;;
5077;SDS011;2557;51.390;7.494;2023-08-21T01:50:31;12.60;;;7.50;;
5077;SDS011;2557;51.390;7.494;2023-08-21T01:52:57;11.03;;;7.50;;
5077;SDS011;2557;51.390;7.494;2023-08-21T01:55:23;10.83;;;7.20;;
5077;SDS011;2557;51.390;7.494;2023-08-21T01:57:49;12.90;;;7.60;;
5077;SDS011;2557;51.390;7.494;2023-08-21T02:00:15;7.60;;;6.73;;
5077;SDS011;2557;51.390;7.494;2023-08-21T02:02:41;9.30;;;7.10;;
5077;SDS011;2557;51.390;7.494;2023-08-21T02:05:07;11.57;;;6.77;;
5077;SDS011;2557;51.390;7.494;2023-08-21T02:07:33;12.53;;;6.50;;
5077;SDS011;2557;51.390;7.494;2023-08-21T02:09:59;9.10;;;6.23;;
5077;SDS011;2557;51.390;7.494;2023-08-21T02:12:25;9.10;;;6.40;;
5077;SDS011;2557;51.390;7.494;2023-08-21T02:14:51;8.00;;;6.70;;
5077;SDS011;2557;51.390;7.494;2023-08-21T02:17:17;12.03;;;6.67;;
5077;SDS011;2557;51.390;7.494;2023-08-21T02:19:43;9.37;;;7.40;;
5077;SDS011;2557;51.390;7.494;2023-08-21T02:22:09;8.40;;;7.50;;
5077;SDS011;2557;51.390;7.494;2023-08-21T02:24:35;9.00;;;6.47;;
5077;SDS011;2557;51.390;7.494;2023-08-21T02:27:01;12.27;;;7.13;;
5077;SDS011;2557;51.390;7.494;2023-08-21T02:29:28;12.63;;;7.70;;
5077;SDS011;2557;51.390;7.494;2023-08-21T02:31:54;10.37;;;6.73;;
5077;SDS011;2557;51.390;7.494;2023-08-21T02:34:20;9.97;;;8.60;;
5077;SDS011;2557;51.390;7.494;2023-08-21T02:36:46;12.70;;;6.57;;
5077;SDS011;2557;51.390;7.494;2023-08-21T02:39:12;8.77;;;6.97;;
5077;SDS011;2557;51.390;7.494;2023-08-21T02:41:38;11.70;;;6.87;;
5077;SDS011;2557;51.390;7.494;2023-08-21T02:44:04;13.60;;;6.47;;
5077;SDS011;2557;51.390;7.494;2023-08-21T02:46:30;8.43;;;7.63;;
5077;SDS011;2557;51.390;7.494;2023-08-21T02:48:56;9.70;;;8.00;;
5077;SDS011;2557;51.390;7.494;2023-08-21T02:51:22;11.70;;;7.83;;
5077;SDS011;2557;51.390;7.494;2023-08-21T02:53:48;10.00;;;8.27;;
5077;SDS011;2557;51.390;7.494;2023-08-21T02:56:14;14.10;;;7.23;;
5077;SDS011;2557;51.390;7.494;2023-08-21T02:58:40;15.80;;;8.50;;
5077;SDS011;2557;51.390;7.494;2023-08-21T03:01:06;8.00;;;6.60;;
5077;SDS011;2557;51.390;7.494;2023-08-21T03:03:32;13.40;;;7.97;;
5077;SDS011;2557;51.390;7.494;2023-08-21T03:06:00;12.10;;;8.07;;
5077;SDS011;2557;51.390;7.494;2023-08-21T03:08:26;8.73;;;7.80;;
5077;SDS011;2557;51.390;7.494;2023-08-21T03:10:52;12.33;;;8.90;;
5077;SDS011;2557;51.390;7.494;2023-08-21T03:13:18;8.20;;;7.10;;
5077;SDS011;2557;51.390;7.494;2023-08-21T03:15:44;11.10;;;8.00;;
5077;SDS011;2557;51.390;7.494;2023-08-21T03:18:10;8.93;;;6.90;;
5077;SDS011;2557;51.390;7.494;2023-08-21T03:20:36;8.93;;;7.03;;
5077;SDS011;2557;51.390;7.494;2023-08-21T03:23:02;10.83;;;8.03;;
5077;SDS011;2557;51.390;7.494;2023-08-21T03:25:29;8.67;;;7.63;;
5077;SDS011;2557;51.390;7.494;2023-08-21T03:27:54;10.80;;;7.70;;
5077;SDS011;2557;51.390;7.494;2023-08-21T03:30:20;9.80;;;7.63;;
5077;SDS011;2557;51.390;7.494;2023-08-21T03:32:46;9.00;;;7.43;;
5077;SDS011;2557;51.390;7.494;2023-08-21T03:35:12;9.43;;;7.23;;
5077;SDS011;2557;51.390;7.494;2023-08-21T03:37:38;8.53;;;6.67;;
5077;SDS011;2557;51.390;7.494;2023-08-21T03:40:05;10.20;;;7.33;;
5077;SDS011;2557;51.390;7.494;2023-08-21T03:42:31;9.27;;;7.30;;
5077;SDS011;2557;51.390;7.494;2023-08-21T03:44:57;10.40;;;8.50;;
5077;SDS011;2557;51.390;7.494;2023-08-21T03:47:23;8.43;;;7.53;;
5077;SDS011;2557;51.390;7.494;2023-08-21T03:49:49;11.00;;;7.67;;
5077;SDS011;2557;51.390;7.494;2023-08-21T03:52:15;11.97;;;7.33;;
5077;SDS011;2557;51.390;7.494;2023-08-21T03:54:41;8.33;;;7.33;;
5077;SDS011;2557;51.390;7.494;2023-08-21T03:57:07;10.83;;;8.00;;
5077;SDS011;2557;51.390;7.494;2023-08-21T03:59:33;9.70;;;7.37;;
5077;SDS011;2557;51.390;7.494;2023-08-21T04:01:59;8.47;;;7.63;;
5077;SDS011;2557;51.390;7.494;2023-08-21T04:04:25;8.80;;;7.63;;
5077;SDS011;2557;51.390;7.494;2023-08-21T04:06:51;8.37;;;7.57;;
5077;SDS011;2557;51.390;7.494;2023-08-21T04:09:17;9.67;;;7.60;;
5077;SDS011;2557;51.390;7.494;2023-08-21T04:11:43;11.90;;;7.47;;
5077;SDS011;2557;51.390;7.494;2023-08-21T04:14:09;10.00;;;7.33;;
5077;SDS011;2557;51.390;7.494;2023-08-21T04:16:35;12.53;;;7.40;;
5077;SDS011;2557;51.390;7.494;2023-08-21T04:19:01;11.10;;;8.10;;
5077;SDS011;2557;51.390;7.494;2023-08-21T04:21:27;16.83;;;8.00;;
5077;SDS011;2557;51.390;7.494;2023-08-21T04:23:53;9.77;;;7.90;;
5077;SDS011;2557;51.390;7.494;2023-08-21T04:26:19;16.60;;;7.63;;
5077;SDS011;2557;51.390;7.494;2023-08-21T04:28:45;12.47;;;7.00;;
5077;SDS011;2557;51.390;7.494;2023-08-21T04:31:11;16.13;;;8.40;;
5077;SDS011;2557;51.390;7.494;2023-08-21T04:33:37;10.57;;;7.73;;
5077;SDS011;2557;51.390;7.494;2023-08-21T04:36:03;10.57;;;7.07;;
5077;SDS011;2557;51.390;7.494;2023-08-21T04:38:29;7.93;;;7.10;;
5077;SDS011;2557;51.390;7.494;2023-08-21T04:40:55;8.70;;;7.90;;
5077;SDS011;2557;51.390;7.494;2023-08-21T04:43:21;16.10;;;8.67;;
5077;SDS011;2557;51.390;7.494;2023-08-21T04:45:51;15.17;;;7.70;;
5077;SDS011;2557;51.390;7.494;2023-08-21T04:48:20;8.93;;;8.07;;
5077;SDS011;2557;51.390;7.494;2023-08-21T04:50:46;11.70;;;7.87;;
5077;SDS011;2557;51.390;7.494;2023-08-21T04:53:12;12.80;;;8.93;;
5077;SDS011;2557;51.390;7.494;2023-08-21T04:55:39;23.80;;;9.00;;
5077;SDS011;2557;51.390;7.494;2023-08-21T04:58:05;17.50;;;7.03;;
5077;SDS011;2557;51.390;7.494;2023-08-21T05:00:31;9.87;;;7.63;;
5077;SDS011;2557;51.390;7.494;2023-08-21T05:02:57;10.33;;;7.20;;
5077;SDS011;2557;51.390;7.494;2023-08-21T05:05:24;8.83;;;7.40;;
5077;SDS011;2557;51.390;7.494;2023-08-21T05:07:49;13.07;;;7.87;;
5077;SDS011;2557;51.390;7.494;2023-08-21T05:10:16;10.77;;;7.90;;
5077;SDS011;2557;51.390;7.494;2023-08-21T05:12:42;9.10;;;7.70;;
5077;SDS011;2557;51.390;7.494;2023-08-21T05:15:08;15.73;;;8.33;;
5077;SDS011;2557;51.390;7.494;2023-08-21T05:17:34;12.90;;;8.50;;
5077;SDS011;2557;51.390;7.494;2023-08-21T05:20:00;11.73;;;8.10;;
5077;SDS011;2557;51.390;7.494;2023-08-21T05:22:26;16.97;;;7.83;;
5077;SDS011;2557;51.390;7.494;2023-08-21T05:24:52;14.87;;;8.20;;
5077;SDS011;2557;51.390;7.494;2023-08-21T05:27:18;10.83;;;7.90;;
5077;SDS011;2557;51.390;7.494;2023-08-21T05:29:44;11.27;;;7.37;;
5077;SDS011;2557;51.390;7.494;2023-08-21T05:32:10;9.67;;;8.10;;
5077;SDS011;2557;51.390;7.494;2023-08-21T05:34:36;10.87;;;7.97;;
5077;SDS011;2557;51.390;7.494;2023-08-21T05:37:02;12.33;;;8.10;;
5077;SDS011;2557;51.390;7.494;2023-08-21T05:39:28;9.63;;;8.27;;
5077;SDS011;2557;51.390;7.494;2023-08-21T05:41:54;11.23;;;8.70;;
5077;SDS011;2557;51.390;7.494;2023-08-21T05:44:20;15.17;;;8.00;;
5077;SDS011;2557;51.390;7.494;2023-08-21T05:46:46;13.43;;;8.70;;
5077;SDS011;2557;51.390;7.494;2023-08-21T05:49:12;12.37;;;9.27;;
5077;SDS011;2557;51.390;7.494;2023-08-21T05:51:38;11.50;;;7.67;;
5077;SDS011;2557;51.390;7.494;2023-08-21T05:54:04;14.70;;;8.70;;
5077;SDS011;2557;51.390;7.494;2023-08-21T05:56:30;11.90;;;7.90;;
5077;SDS011;2557;51.390;7.494;2023-08-21T05:58:56;13.47;;;9.53;;
5077;SDS011;2557;51.390;7.494;2023-08-21T06:01:22;25.07;;;16.23;;
5077;SDS011;2557;51.390;7.494;2023-08-21T06:03:48;22.53;;;13.40;;
5077;SDS011;2557;51.390;7.494;2023-08-21T06:06:14;19.40;;;13.50;;
5077;SDS011;2557;51.390;7.494;2023-08-21T06:08:40;24.70;;;15.90;;
5077;SDS011;2557;51.390;7.494;2023-08-21T06:11:06;23.20;;;12.63;;
5077;SDS011;2557;51.390;7.494;2023-08-21T06:13:32;17.60;;;13.03;;
5077;SDS011;2557;51.390;7.494;2023-08-21T06:15:58;26.40;;;13.03;;
5077;SDS011;2557;51.390;7.494;2023-08-21T06:18:24;17.10;;;10.63;;
5077;SDS011;2557;51.390;7.494;2023-08-21T06:20:50;10.93;;;9.83;;
5077;SDS011;2557;51.390;7.494;2023-08-21T06:23:18;12.80;;;9.47;;
5077;SDS011;2557;51.390;7.494;2023-08-21T06:25:46;14.40;;;8.83;;
5077;SDS011;2557;51.390;7.494;2023-08-21T06:28:12;14.10;;;10.17;;
5077;SDS011;2557;51.390;7.494;2023-08-21T06:30:38;16.90;;;10.13;;
5077;SDS011;2557;51.390;7.494;2023-08-21T06:33:04;18.77;;;12.20;;
5077;SDS011;2557;51.390;7.494;2023-08-21T06:35:30;12.23;;;9.40;;
5077;SDS011;2557;51.390;7.494;2023-08-21T06:37:56;12.30;;;9.90;;
5077;SDS011;2557;51.390;7.494;2023-08-21T06:40:23;9.43;;;8.20;;
5077;SDS011;2557;51.390;7.494;2023-08-21T06:42:49;7.27;;;6.50;;
5077;SDS011;2557;51.390;7.494;2023-08-21T06:45:16;12.37;;;8.53;;
5077;SDS011;2557;51.390;7.494;2023-08-21T06:47:42;16.27;;;9.20;;
5077;SDS011;2557;51.390;7.494;2023-08-21T06:50:09;14.33;;;9.10;;
5077;SDS011;2557;51.390;7.494;2023-08-21T06:52:35;11.30;;;8.00;;
5077;SDS011;2557;51.390;7.494;2023-08-21T06:55:01;14.43;;;10.37;;
5077;SDS011;2557;51.390;7.494;2023-08-21T06:57:27;14.90;;;10.70;;
5077;SDS011;2557;51.390;7.494;2023-08-21T06:59:53;14.83;;;10.33;;
5077;SDS011;2557;51.390;7.494;2023-08-21T07:02:19;14.23;;;11.40;;
5077;SDS011;2557;51.390;7.494;2023-08-21T07:04:45;32.67;;;15.53;;
5077;SDS011;2557;51.390;7.494;2023-08-21T07:07:11;44.80;;;20.03;;
5077;SDS011;2557;51.390;7.494;2023-08-21T07:09:37;35.77;;;13.43;;
5077;SDS011;2557;51.390;7.494;2023-08-21T07:12:03;33.73;;;14.03;;
5077;SDS011;2557;51.390;7.494;2023-08-21T07:14:29;19.40;;;12.13;;
5077;SDS011;2557;51.390;7.494;2023-08-21T07:16:55;21.97;;;11.57;;
5077;SDS011;2557;51.390;7.494;2023-08-21T07:19:21;14.63;;;9.47;;
5077;SDS011;2557;51.390;7.494;2023-08-21T07:21:47;15.07;;;10.17;;
5077;SDS011;2557;51.390;7.494;2023-08-21T07:24:13;17.60;;;9.97;;
5077;SDS011;2557;51.390;7.494;2023-08-21T07:26:39;13.10;;;9.10;;
5077;SDS011;2557;51.390;7.494;2023-08-21T07:29:05;10.30;;;8.60;;
5077;SDS011;2557;51.390;7.494;2023-08-21T07:31:32;14.30;;;8.03;;
5077;SDS011;2557;51.390;7.494;2023-08-21T07:33:58;11.83;;;8.97;;
5077;SDS011;2557;51.390;7.494;2023-08-21T07:36:24;11.33;;;8.50;;
5077;SDS011;2557;51.390;7.494;2023-08-21T07:38:50;10.70;;;9.20;;
5077;SDS011;2557;51.390;7.494;2023-08-21T07:41:16;12.60;;;9.37;;
5077;SDS011;2557;51.390;7.494;2023-08-21T07:43:43;10.30;;;8.37;;
5077;SDS011;2557;51.390;7.494;2023-08-21T07:46:10;9.80;;;7.93;;
5077;SDS011;2557;51.390;7.494;2023-08-21T07:48:38;8.00;;;7.27;;
5077;SDS011;2557;51.390;7.494;2023-08-21T07:51:05;14.97;;;8.50;;
5077;SDS011;2557;51.390;7.494;2023-08-21T07:53:31;13.73;;;8.17;;
5077;SDS011;2557;51.390;7.494;2023-08-21T07:55:58;13.10;;;7.83;;
5077;SDS011;2557;51.390;7.494;2023-08-21T07:58:24;19.70;;;8.37;;
5077;SDS011;2557;51.390;7.494;2023-08-21T08:00:50;9.90;;;7.50;;
5077;SDS011;2557;51.390;7.494;2023-08-21T08:03:16;9.83;;;7.30;;
5077;SDS011;2557;51.390;7.494;2023-08-21T08:05:42;9.87;;;7.50;;
5077;SDS011;2557;51.390;7.494;2023-08-21T08:08:08;11.07;;;8.73;;
5077;SDS011;2557;51.390;7.494;2023-08-21T08:10:40;12.40;;;7.40;;
5077;SDS011;2557;51.390;7.494;2023-08-21T08:13:07;7.43;;;6.30;;
5077;SDS011;2557;51.390;7.494;2023-08-21T08:15:33;11.60;;;6.77;;
5077;SDS011;2557;51.390;7.494;2023-08-21T08:18:00;8.30;;;7.20;;
5077;SDS011;2557;51.390;7.494;2023-08-21T08:20:26;8.90;;;6.70;;
5077;SDS011;2557;51.390;7.494;2023-08-21T08:22:52;12.33;;;6.97;;
5077;SDS011;2557;51.390;7.494;2023-08-21T08:25:18;9.10;;;6.73;;
5077;SDS011;2557;51.390;7.494;2023-08-21T08:27:44;10.83;;;5.57;;
5077;SDS011;2557;51.390;7.494;2023-08-21T08:30:10;8.43;;;5.70;;
5077;SDS011;2557;51.390;7.494;2023-08-21T08:32:36;13.77;;;5.77;;
5077;SDS011;2557;51.390;7.494;2023-08-21T08:35:02;9.23;;;6.57;;
5077;SDS011;2557;51.390;7.494;2023-08-21T08:37:28;11.00;;;6.90;;
5077;SDS011;2557;51.390;7.494;2023-08-21T08:39:54;9.67;;;6.67;;
5077;SDS011;2557;51.390;7.494;2023-08-21T08:42:20;8.47;;;6.40;;
5077;SDS011;2557;51.390;7.494;2023-08-21T08:44:46;6.97;;;6.30;;
5077;SDS011;2557;51.390;7.494;2023-08-21T08:47:13;11.60;;;6.73;;
5077;SDS011;2557;51.390;7.494;2023-08-21T08:49:39;8.27;;;6.83;;
5077;SDS011;2557;51.390;7.494;2023-08-21T08:52:05;13.73;;;5.80;;
5077;SDS011;2557;51.390;7.494;2023-08-21T08:54:31;8.60;;;7.27;;
5077;SDS011;2557;51.390;7.494;2023-08-21T08:56:58;7.70;;;7.00;;
5077;SDS011;2557;51.390;7.494;2023-08-21T08:59:24;8.07;;;7.00;;
5077;SDS011;2557;51.390;7.494;2023-08-21T09:01:50;12.03;;;7.50;;
5077;SDS011;2557;51.390;7.494;2023-08-21T09:04:16;15.23;;;8.00;;
5077;SDS011;2557;51.390;7.494;2023-08-21T09:06:42;8.50;;;6.07;;
5077;SDS011;2557;51.390;7.494;2023-08-21T09:09:08;7.80;;;6.70;;
5077;SDS011;2557;51.390;7.494;2023-08-21T09:11:42;9.57;;;6.67;;
5077;SDS011;2557;51.390;7.494;2023-08-21T09:14:08;7.03;;;6.27;;
5077;SDS011;2557;51.390;7.494;2023-08-21T09:16:35;9.30;;;6.80;;
5077;SDS011;2557;51.390;7.494;2023-08-21T09:19:01;13.23;;;6.60;;
5077;SDS011;2557;51.390;7.494;2023-08-21T09:21:27;9.93;;;6.63;;
5077;SDS011;2557;51.390;7.494;2023-08-21T09:23:57;7.30;;;6.10;;
5077;SDS011;2557;51.390;7.494;2023-08-21T09:26:24;8.30;;;6.03;;
5077;SDS011;2557;51.390;7.494;2023-08-21T09:28:51;7.43;;;6.73;;
5077;SDS011;2557;51.390;7.494;2023-08-21T09:31:38;9.73;;;6.10;;
5077;SDS011;2557;51.390;7.494;2023-08-21T09:34:04;9.90;;;6.50;;
5077;SDS011;2557;51.390;7.494;2023-08-21T09:36:30;6.43;;;5.83;;
5077;SDS011;2557;51.390;7.494;2023-08-21T09:38:56;9.13;;;5.83;;
5077;SDS011;2557;51.390;7.494;2023-08-21T09:41:23;9.57;;;6.63;;
5077;SDS011;2557;51.390;7.494;2023-08-21T09:43:49;7.00;;;6.30;;
5077;SDS011;2557;51.390;7.494;2023-08-21T09:46:16;8.03;;;6.83;;
5077;SDS011;2557;51.390;7.494;2023-08-21T09:48:45;7.43;;;6.80;;
5077;SDS011;2557;51.390;7.494;2023-08-21T09:51:11;10.40;;;7.43;;
5077;SDS011;2557;51.390;7.494;2023-08-21T09:53:37;7.50;;;5.80;;
5077;SDS011;2557;51.390;7.494;2023-08-21T09:56:06;7.50;;;6.80;;
5077;SDS011;2557;51.390;7.494;2023-08-21T09:58:34;7.50;;;5.70;;
5077;SDS011;2557;51.390;7.494;2023-08-21T10:01:01;5.60;;;4.93;;
5077;SDS011;2557;51.390;7.494;2023-08-21T10:03:33;7.80;;;6.57;;
5077;SDS011;2557;51.390;7.494;2023-08-21T10:06:00;6.60;;;5.80;;
5077;SDS011;2557;51.390;7.494;2023-08-21T10:08:28;12.60;;;6.50;;
5077;SDS011;2557;51.390;7.494;2023-08-21T10:10:54;6.70;;;5.60;;
5077;SDS011;2557;51.390;7.494;2023-08-21T10:13:20;13.13;;;6.03;;
5077;SDS011;2557;51.390;7.494;2023-08-21T10:15:47;7.90;;;5.87;;
5077;SDS011;2557;51.390;7.494;2023-08-21T10:20:45;8.80;;;6.20;;
5077;SDS011;2557;51.390;7.494;2023-08-21T10:23:12;10.20;;;5.70;;
5077;SDS011;2557;51.390;7.494;2023-08-21T10:25:48;9.27;;;4.90;;
5077;SDS011;2557;51.390;7.494;2023-08-21T10:28:19;9.60;;;6.03;;
5077;SDS011;2557;51.390;7.494;2023-08-21T10:30:46;8.90;;;5.90;;
5077;SDS011;2557;51.390;7.494;2023-08-21T10:33:11;5.67;;;5.03;;
5077;SDS011;2557;51.390;7.494;2023-08-21T10:35:38;7.03;;;5.70;;
5077;SDS011;2557;51.390;7.494;2023-08-21T10:40:37;8.87;;;4.77;;
5077;SDS011;2557;51.390;7.494;2023-08-21T10:43:04;9.83;;;4.60;;
5077;SDS011;2557;51.390;7.494;2023-08-21T10:45:30;11.30;;;3.93;;
5077;SDS011;2557;51.390;7.494;2023-08-21T10:47:59;5.67;;;5.07;;
5077;SDS011;2557;51.390;7.494;2023-08-21T10:50:25;5.87;;;4.80;;
5077;SDS011;2557;51.390;7.494;2023-08-21T10:52:52;9.47;;;4.63;;
5077;SDS011;2557;51.390;7.494;2023-08-21T10:55:18;8.30;;;5.30;;
5077;SDS011;2557;51.390;7.494;2023-08-21T10:57:46;5.07;;;4.47;;
5077;SDS011;2557;51.390;7.494;2023-08-21T11:00:13;6.90;;;4.77;;
5077;SDS011;2557;51.390;7.494;2023-08-21T11:02:43;5.60;;;4.10;;
5077;SDS011;2557;51.390;7.494;2023-08-21T11:05:09;7.10;;;4.80;;
5077;SDS011;2557;51.390;7.494;2023-08-21T11:07:42;10.33;;;4.30;;
5077;SDS011;2557;51.390;7.494;2023-08-21T11:10:10;16.10;;;5.83;;
5077;SDS011;2557;51.390;7.494;2023-08-21T11:12:36;9.90;;;5.83;;
5077;SDS011;2557;51.390;7.494;2023-08-21T11:15:05;8.93;;;4.73;;
5077;SDS011;2557;51.390;7.494;2023-08-21T11:17:31;7.60;;;5.30;;
5077;SDS011;2557;51.390;7.494;2023-08-21T11:20:00;11.50;;;5.77;;
5077;SDS011;2557;51.390;7.494;2023-08-21T11:22:28;7.20;;;5.07;;
5077;SDS011;2557;51.390;7.494;2023-08-21T11:24:55;11.37;;;6.00;;
5077;SDS011;2557;51.390;7.494;2023-08-21T11:27:21;9.83;;;4.37;;
5077;SDS011;2557;51.390;7.494;2023-08-21T11:29:48;5.47;;;4.40;;
5077;SDS011;2557;51.390;7.494;2023-08-21T11:32:15;6.73;;;5.00;;
5077;SDS011;2557;51.390;7.494;2023-08-21T11:34:42;8.63;;;6.00;;
5077;SDS011;2557;51.390;7.494;2023-08-21T11:37:09;8.63;;;4.77;;
5077;SDS011;2557;51.390;7.494;2023-08-21T11:42:34;5.40;;;4.30;;
5077;SDS011;2557;51.390;7.494;2023-08-21T11:45:00;5.73;;;5.20;;
5077;SDS011;2557;51.390;7.494;2023-08-21T11:47:30;8.60;;;6.00;;
5077;SDS011;2557;51.390;7.494;2023-08-21T11:49:56;6.00;;;5.33;;
5077;SDS011;2557;51.390;7.494;2023-08-21T11:52:23;7.77;;;6.17;;
5077;SDS011;2557;51.390;7.494;2023-08-21T11:54:50;5.10;;;4.60;;
5077;SDS011;2557;51.390;7.494;2023-08-21T11:57:17;7.10;;;5.17;;
5077;SDS011;2557;51.390;7.494;2023-08-21T11:59:48;8.10;;;5.40;;
5077;SDS011;2557;51.390;7.494;2023-08-21T12:02:22;8.73;;;6.40;;
5077;SDS011;2557;51.390;7.494;2023-08-21T12:05:02;7.90;;;4.30;;
5077;SDS011;2557;51.390;7.494;2023-08-21T12:07:29;5.17;;;4.67;;
5077;SDS011;2557;51.390;7.494;2023-08-21T12:09:55;7.40;;;4.43;;
5077;SDS011;2557;51.390;7.494;2023-08-21T12:12:22;7.47;;;4.50;;
5077;SDS011;2557;51.390;7.494;2023-08-21T12:14:48;6.80;;;5.77;;
5077;SDS011;2557;51.390;7.494;2023-08-21T12:17:14;8.23;;;4.93;;
5077;SDS011;2557;51.390;7.494;2023-08-21T12:19:40;8.97;;;5.77;;
5077;SDS011;2557;51.390;7.494;2023-08-21T12:22:09;9.03;;;5.37;;
5077;SDS011;2557;51.390;7.494;2023-08-21T12:24:37;12.00;;;5.77;;
5077;SDS011;2557;51.390;7.494;2023-08-21T12:27:03;8.97;;;5.80;;
5077;SDS011;2557;51.390;7.494;2023-08-21T12:29:29;7.63;;;5.10;;
5077;SDS011;2557;51.390;7.494;2023-08-21T12:31:55;9.20;;;5.73;;
5077;SDS011;2557;51.390;7.494;2023-08-21T12:34:21;7.40;;;4.80;;
5077;SDS011;2557;51.390;7.494;2023-08-21T12:36:49;12.10;;;6.07;;
5077;SDS011;2557;51.390;7.494;2023-08-21T12:39:16;10.90;;;6.17;;
5077;SDS011;2557;51.390;7.494;2023-08-21T12:41:42;7.40;;;4.97;;
5077;SDS011;2557;51.390;7.494;2023-08-21T12:44:09;6.70;;;5.70;;
5077;SDS011;2557;51.390;7.494;2023-08-21T12:46:35;6.37;;;5.03;;
5077;SDS011;2557;51.390;7.494;2023-08-21T12:49:01;7.70;;;5.17;;
5077;SDS011;2557;51.390;7.494;2023-08-21T12:51:28;5.13;;;4.67;;
5077;SDS011;2557;51.390;7.494;2023-08-21T12:53:54;6.60;;;4.40;;
5077;SDS011;2557;51.390;7.494;2023-08-21T12:56:20;5.20;;;4.17;;
5077;SDS011;2557;51.390;7.494;2023-08-21T12:58:46;6.80;;;4.50;;
5077;SDS011;2557;51.390;7.494;2023-08-21T13:01:12;5.07;;;4.57;;
5077;SDS011;2557;51.390;7.494;2023-08-21T13:03:39;6.40;;;4.60;;
5077;SDS011;2557;51.390;7.494;2023-08-21T13:06:08;5.47;;;5.07;;
5077;SDS011;2557;51.390;7.494;2023-08-21T13:08:34;13.93;;;5.40;;
5077;SDS011;2557;51.390;7.494;2023-08-21T13:11:00;10.13;;;5.53;;
5077;SDS011;2557;51.390;7.494;2023-08-21T13:13:28;5.90;;;5.20;;
5077;SDS011;2557;51.390;7.494;2023-08-21T13:15:54;7.83;;;4.80;;
5077;SDS011;2557;51.390;7.494;2023-08-21T13:18:20;6.63;;;4.70;;
5077;SDS011;2557;51.390;7.494;2023-08-21T13:20:46;6.13;;;5.50;;
5077;SDS011;2557;51.390;7.494;2023-08-21T13:23:12;9.17;;;5.10;;
5077;SDS011;2557;51.390;7.494;2023-08-21T13:25:38;14.73;;;4.33;;
5077;SDS011;2557;51.390;7.494;2023-08-21T13:28:04;5.60;;;4.10;;
5077;SDS011;2557;51.390;7.494;2023-08-21T13:30:30;6.60;;;4.30;;
5077;SDS011;2557;51.390;7.494;2023-08-21T13:32:56;13.33;;;4.77;;
5077;SDS011;2557;51.390;7.494;2023-08-21T13:35:22;5.23;;;4.83;;
5077;SDS011;2557;51.390;7.494;2023-08-21T13:37:49;11.50;;;4.23;;
5077;SDS011;2557;51.390;7.494;2023-08-21T13:40:15;7.90;;;4.83;;
5077;SDS011;2557;51.390;7.494;2023-08-21T13:42:42;8.80;;;5.30;;
5077;SDS011;2557;51.390;7.494;2023-08-21T13:45:09;8.83;;;4.67;;
5077;SDS011;2557;51.390;7.494;2023-08-21T13:47:37;11.50;;;4.50;;
5077;SDS011;2557;51.390;7.494;2023-08-21T13:50:03;7.03;;;4.93;;
5077;SDS011;2557;51.390;7.494;2023-08-21T13:52:30;6.07;;;4.20;;
5077;SDS011;2557;51.390;7.494;2023-08-21T13:54:57;8.30;;;5.27;;
5077;SDS011;2557;51.390;7.494;2023-08-21T13:57:24;5.00;;;4.47;;
5077;SDS011;2557;51.390;7.494;2023-08-21T13:59:50;5.13;;;3.53;;
5077;SDS011;2557;51.390;7.494;2023-08-21T14:02:16;4.73;;;4.00;;
5077;SDS011;2557;51.390;7.494;2023-08-21T14:04:43;6.63;;;5.27;;
5077;SDS011;2557;51.390;7.494;2023-08-21T14:07:09;4.43;;;4.13;;
5077;SDS011;2557;51.390;7.494;2023-08-21T14:09:35;5.70;;;4.30;;
5077;SDS011;2557;51.390;7.494;2023-08-21T14:12:02;5.10;;;3.67;;
5077;SDS011;2557;51.390;7.494;2023-08-21T14:14:28;7.90;;;5.40;;
5077;SDS011;2557;51.390;7.494;2023-08-21T14:16:54;5.10;;;4.63;;
5077;SDS011;2557;51.390;7.494;2023-08-21T14:19:20;6.53;;;5.20;;
5077;SDS011;2557;51.390;7.494;2023-08-21T14:21:46;7.43;;;4.80;;
5077;SDS011;2557;51.390;7.494;2023-08-21T14:24:12;6.37;;;4.83;;
5077;SDS011;2557;51.390;7.494;2023-08-21T14:26:38;6.40;;;4.80;;
5077;SDS011;2557;51.390;7.494;2023-08-21T14:29:05;9.40;;;4.70;;
5077;SDS011;2557;51.390;7.494;2023-08-21T14:31:32;5.20;;;4.70;;
5077;SDS011;2557;51.390;7.494;2023-08-21T14:33:58;8.50;;;4.70;;
5077;SDS011;2557;51.390;7.494;2023-08-21T14:36:24;9.87;;;5.10;;
5077;SDS011;2557;51.390;7.494;2023-08-21T14:38:50;9.13;;;4.80;;
5077;SDS011;2557;51.390;7.494;2023-08-21T14:41:16;5.53;;;5.00;;
5077;SDS011;2557;51.390;7.494;2023-08-21T14:43:42;6.20;;;5.13;;
5077;SDS011;2557;51.390;7.494;2023-08-21T14:46:08;7.80;;;4.73;;
5077;SDS011;2557;51.390;7.494;2023-08-21T14:48:35;12.37;;;4.77;;
5077;SDS011;2557;51.390;7.494;2023-08-21T14:51:01;8.00;;;4.33;;
5077;SDS011;2557;51.390;7.494;2023-08-21T14:53:28;9.60;;;4.47;;
5077;SDS011;2557;51.390;7.494;2023-08-21T14:55:54;5.47;;;4.80;;
5077;SDS011;2557;51.390;7.494;2023-08-21T14:58:20;6.70;;;5.00;;
5077;SDS011;2557;51.390;7.494;2023-08-21T15:00:46;6.00;;;4.27;;
5077;SDS011;2557;51.390;7.494;2023-08-21T15:03:12;9.67;;;5.20;;
5077;SDS011;2557;51.390;7.494;2023-08-21T15:05:38;7.30;;;5.00;;
5077;SDS011;2557;51.390;7.494;2023-08-21T15:08:04;6.20;;;5.47;;
5077;SDS011;2557;51.390;7.494;2023-08-21T15:10:30;6.97;;;5.37;;
5077;SDS011;2557;51.390;7.494;2023-08-21T15:12:56;12.90;;;5.40;;